createdAt,value
2019-01-26T00:01:15.818Z,2.50
2019-01-26T00:03:46.740Z,2.70
2019-01-26T00:06:29.248Z,2.70
2019-01-26T00:08:58.707Z,2.80
2019-01-26T00:11:28.167Z,2.80
2019-01-26T00:13:57.859Z,2.70
2019-01-26T00:16:27.501Z,2.70
2019-01-26T00:18:56.920Z,2.70
2019-01-26T00:21:26.497Z,2.60
2019-01-26T00:23:56.021Z,2.50
2019-01-26T00:26:25.699Z,2.50
2019-01-26T00:28:55.116Z,2.60
2019-01-26T00:31:24.707Z,2.70
2019-01-26T00:33:54.275Z,2.70
2019-01-26T00:36:23.831Z,2.70
2019-01-26T00:38:54.015Z,2.80
2019-01-26T00:41:23.655Z,2.80
2019-01-26T00:43:53.155Z,2.90
2019-01-26T00:46:28.356Z,2.80
2019-01-26T00:48:54.016Z,2.90
2019-01-26T00:51:23.439Z,2.90
2019-01-26T00:53:52.888Z,2.90
2019-01-26T00:56:22.436Z,2.80
2019-01-26T00:58:51.874Z,2.80
2019-01-26T01:01:21.564Z,2.80
2019-01-26T01:03:51.048Z,2.70
2019-01-26T01:06:25.890Z,2.70
2019-01-26T01:08:53.601Z,2.70
2019-01-26T01:11:42.448Z,2.70
2019-01-26T01:14:12.128Z,2.70
2019-01-26T01:16:41.814Z,2.70
2019-01-26T01:19:12.115Z,2.70
2019-01-26T01:21:43.172Z,2.70
2019-01-26T01:24:12.804Z,2.80
2019-01-26T01:26:42.939Z,2.80
2019-01-26T01:29:12.519Z,2.90
2019-01-26T01:31:41.943Z,2.80
2019-01-26T01:34:11.770Z,2.70
2019-01-26T01:36:41.192Z,2.70
2019-01-26T01:39:10.890Z,2.90
2019-01-26T01:41:40.851Z,2.70
2019-01-26T01:44:10.275Z,2.70
2019-01-26T01:46:43.027Z,2.60
2019-01-26T01:49:10.831Z,2.70
2019-01-26T01:51:40.396Z,2.90
2019-01-26T01:54:10.215Z,2.80
2019-01-26T01:56:39.884Z,2.90
2019-01-26T01:59:09.302Z,3.10
2019-01-26T02:01:38.795Z,3.10
2019-01-26T02:04:08.643Z,3.20
2019-01-26T02:06:38.058Z,3.20
2019-01-26T02:09:09.051Z,3.10
2019-01-26T02:11:38.678Z,3.10
2019-01-26T02:14:08.482Z,3.10
2019-01-26T02:16:37.975Z,3.10
2019-01-26T02:19:08.205Z,3.10
2019-01-26T02:21:37.951Z,3.00
2019-01-26T02:24:07.643Z,3.00
2019-01-26T02:26:37.684Z,3.10
2019-01-26T02:29:07.240Z,3.20
2019-01-26T02:31:36.720Z,3.10
2019-01-26T02:34:06.607Z,3.10
2019-01-26T02:36:36.038Z,3.00
2019-01-26T02:39:07.781Z,3.10
2019-01-26T02:41:37.296Z,3.10
2019-01-26T02:44:06.778Z,3.00
2019-01-26T02:46:36.319Z,3.00
2019-01-26T02:49:06.159Z,3.20
2019-01-26T02:51:36.216Z,3.40
2019-01-26T02:54:06.137Z,3.40
2019-01-26T02:56:35.653Z,3.40
2019-01-26T02:59:05.556Z,3.30
2019-01-26T03:01:35.470Z,3.30
2019-01-26T03:04:05.657Z,3.30
2019-01-26T03:06:35.235Z,3.30
2019-01-26T03:09:07.879Z,3.20
2019-01-26T03:11:38.771Z,3.30
2019-01-26T03:14:08.735Z,3.30
2019-01-26T03:16:38.224Z,3.40
2019-01-26T03:19:07.816Z,3.40
2019-01-26T03:21:37.298Z,3.30
2019-01-26T03:24:06.960Z,3.50
2019-01-26T03:26:36.738Z,3.40
2019-01-26T03:29:06.314Z,3.40
2019-01-26T03:31:35.782Z,3.50
2019-01-26T03:34:05.355Z,3.40
2019-01-26T03:36:35.103Z,3.30
2019-01-26T03:39:07.238Z,3.40
2019-01-26T03:41:37.009Z,3.40
2019-01-26T03:44:06.999Z,3.40
2019-01-26T03:46:36.421Z,3.40
2019-01-26T03:49:06.629Z,3.40
2019-01-26T03:51:36.264Z,3.40
2019-01-26T03:54:05.829Z,3.40
2019-01-26T03:56:35.276Z,3.60
2019-01-26T03:59:05.111Z,3.60
2019-01-26T04:01:34.670Z,3.60
2019-01-26T04:04:04.359Z,3.60
2019-01-26T04:06:34.238Z,3.80
2019-01-26T04:09:05.624Z,3.80
2019-01-26T04:11:54.599Z,3.70
2019-01-26T04:14:25.228Z,3.80
2019-01-26T04:16:54.963Z,3.70
2019-01-26T04:19:24.759Z,3.70
2019-01-26T04:21:54.824Z,3.80
2019-01-26T04:24:24.435Z,3.70
2019-01-26T04:26:54.168Z,3.70
2019-01-26T04:29:23.588Z,3.70
2019-01-26T04:31:53.007Z,3.80
2019-01-26T04:34:22.838Z,3.90
2019-01-26T04:36:52.260Z,3.90
2019-01-26T04:39:21.679Z,4.00
2019-01-26T04:41:51.345Z,4.00
2019-01-26T04:44:20.844Z,4.00
2019-01-26T04:46:50.644Z,3.90
2019-01-26T04:49:20.212Z,3.90
2019-01-26T04:51:49.651Z,3.90
2019-01-26T04:54:19.335Z,4.00
2019-01-26T04:56:49.014Z,4.10
2019-01-26T04:59:18.441Z,3.90
2019-01-26T05:01:47.922Z,4.00
2019-01-26T05:04:17.375Z,3.90
2019-01-26T05:06:47.111Z,3.80
2019-01-26T05:09:17.134Z,3.90
2019-01-26T05:11:48.760Z,3.90
2019-01-26T05:14:18.182Z,3.90
2019-01-26T05:16:48.948Z,4.00
2019-01-26T05:19:18.899Z,4.00
2019-01-26T05:21:48.319Z,4.10
2019-01-26T05:24:19.114Z,4.20
2019-01-26T05:26:48.895Z,4.40
2019-01-26T05:29:18.703Z,4.30
2019-01-26T05:31:48.142Z,4.20
2019-01-26T05:34:17.920Z,4.20
2019-01-26T05:36:47.454Z,4.30
2019-01-26T05:39:16.881Z,4.20
2019-01-26T05:41:46.515Z,4.10
2019-01-26T05:44:16.030Z,4.10
2019-01-26T05:46:45.448Z,4.10
2019-01-26T05:49:14.903Z,4.10
2019-01-26T05:51:44.402Z,4.00
2019-01-26T05:54:14.369Z,4.10
2019-01-26T05:56:44.392Z,4.20
2019-01-26T05:59:13.829Z,4.30
2019-01-26T06:01:43.363Z,4.30
2019-01-26T06:04:13.074Z,4.30
2019-01-26T06:06:42.496Z,4.50
2019-01-26T06:09:12.231Z,4.50
2019-01-26T06:11:41.747Z,4.40
2019-01-26T06:14:11.168Z,4.30
2019-01-26T06:16:41.626Z,4.20
2019-01-26T06:19:12.610Z,4.30
2019-01-26T06:21:42.035Z,4.30
2019-01-26T06:24:11.451Z,4.20
2019-01-26T06:26:41.642Z,4.30
2019-01-26T06:29:11.135Z,4.30
2019-01-26T06:31:40.739Z,4.30
2019-01-26T06:34:10.319Z,4.30
2019-01-26T06:36:39.892Z,4.40
2019-01-26T06:39:10.307Z,4.40
2019-01-26T06:41:40.099Z,4.60
